East Taunton, Massachusetts
Current Conditions -  °F | °C
As of 11:52 PM on Monday 20 Oct 2014 (Local Time) from KTAN Reporting Station
Clear Clear  
Wind Chill: 41°   Ceiling: Unl
Heat Index: 41°   Visibility: 10mi
Dew Point: 39°   Wind: 0mph
Humidity: 93%   Direction: NA
Pressure: 30.01"   Gusts: NA
Location:  41.88°N, 71.03°W
Report Text: KTAN 210352Z AUTO 00000KT 10SM CLR 05/04 A3001 RMK AO2 SLP161 T00500039
Loading
Personal Weather Stations






























Interactive Weather Map
Tropical Storm Tracking
New forecast layout! Learn more

10-Day Weather Forecast

Advertisements
Track Severe Weather on mobile